createdAt,value
2023-06-30T00:00:10.396Z,99571.22
2023-06-30T00:02:38.085Z,99570.78
2023-06-30T00:05:06.578Z,99578.25
2023-06-30T00:07:34.373Z,99573.19
2023-06-30T00:10:02.148Z,99577.50
2023-06-30T00:12:30.599Z,99577.84
2023-06-30T00:14:58.184Z,99572.19
2023-06-30T00:17:25.865Z,99563.63
2023-06-30T00:19:53.535Z,99558.78
2023-06-30T00:22:22.699Z,99547.69
2023-06-30T00:24:50.891Z,99556.38
2023-06-30T00:27:18.492Z,99564.84
2023-06-30T00:29:46.076Z,99562.69
2023-06-30T00:32:13.721Z,99558.69
2023-06-30T00:34:41.405Z,99563.63
2023-06-30T00:37:09.620Z,99562.13
2023-06-30T00:39:37.298Z,99564.03
2023-06-30T00:42:04.928Z,99557.94
2023-06-30T00:44:32.852Z,99565.38
2023-06-30T00:47:02.255Z,99561.56
2023-06-30T00:49:30.521Z,99565.84
2023-06-30T00:51:58.104Z,99566.75
2023-06-30T00:54:25.778Z,99573.09
2023-06-30T00:56:53.353Z,99570.25
2023-06-30T00:59:20.952Z,99562.91
2023-06-30T01:01:49.708Z,99561.59
2023-06-30T01:04:17.416Z,99569.59
2023-06-30T01:06:46.212Z,99568.44
2023-06-30T01:09:13.854Z,99569.00
2023-06-30T01:11:41.655Z,99565.16
2023-06-30T01:14:09.915Z,99570.09
2023-06-30T01:16:37.651Z,99567.09
2023-06-30T01:19:05.306Z,99573.88
2023-06-30T01:21:32.892Z,99565.47
2023-06-30T01:24:00.530Z,99559.09
2023-06-30T01:26:28.641Z,99570.78
2023-06-30T01:28:56.857Z,99566.47
2023-06-30T01:31:24.677Z,99563.66
2023-06-30T01:33:52.336Z,99568.56
2023-06-30T01:36:19.970Z,99567.41
2023-06-30T01:38:47.807Z,99566.75
2023-06-30T01:41:15.426Z,99572.47
2023-06-30T01:43:43.000Z,99579.44
2023-06-30T01:46:10.620Z,99572.91
2023-06-30T01:48:38.277Z,99582.16
2023-06-30T01:51:06.527Z,99577.47
2023-06-30T01:53:34.228Z,99578.53
2023-06-30T01:56:01.825Z,99574.06
2023-06-30T01:58:29.678Z,99568.66
2023-06-30T02:00:57.293Z,99578.28
2023-06-30T02:03:25.552Z,99570.91
2023-06-30T02:05:53.198Z,99569.72
2023-06-30T02:08:20.836Z,99584.56
2023-06-30T02:10:48.396Z,99572.28
2023-06-30T02:13:16.469Z,99582.38
2023-06-30T02:15:44.624Z,99581.19
2023-06-30T02:18:14.710Z,99576.19
2023-06-30T02:20:42.379Z,99591.00
2023-06-30T02:23:10.027Z,99599.28
2023-06-30T02:25:37.620Z,99591.03
2023-06-30T02:28:05.500Z,99594.91
2023-06-30T02:30:33.142Z,99593.06
2023-06-30T02:33:00.762Z,99598.59
2023-06-30T02:35:29.392Z,99598.44
2023-06-30T02:37:57.066Z,99604.47
2023-06-30T02:40:27.571Z,99595.75
2023-06-30T02:42:55.169Z,99607.53
2023-06-30T02:45:23.191Z,99601.13
2023-06-30T02:47:50.855Z,99603.66
2023-06-30T02:50:18.471Z,99609.03
2023-06-30T02:52:46.148Z,99594.72
2023-06-30T02:55:15.090Z,99598.44
2023-06-30T02:57:43.058Z,99601.94
2023-06-30T03:00:11.837Z,99605.66
2023-06-30T03:02:39.700Z,99604.16
2023-06-30T03:05:08.477Z,99606.84
2023-06-30T03:07:36.136Z,99611.53
2023-06-30T03:10:03.898Z,99615.25
2023-06-30T03:12:31.554Z,99616.25
2023-06-30T03:14:59.174Z,99616.59
2023-06-30T03:17:27.121Z,99617.59
2023-06-30T03:19:54.769Z,99615.25
2023-06-30T03:22:22.492Z,99615.41
2023-06-30T03:24:50.058Z,99611.22
2023-06-30T03:27:17.637Z,99612.22
2023-06-30T03:29:45.584Z,99600.78
2023-06-30T03:32:13.200Z,99606.31
2023-06-30T03:34:40.795Z,99614.41
2023-06-30T03:37:08.482Z,99604.66
2023-06-30T03:39:36.195Z,99609.22
2023-06-30T03:42:05.659Z,99617.28
2023-06-30T03:44:33.341Z,99619.78
2023-06-30T03:47:01.131Z,99620.47
2023-06-30T03:49:28.787Z,99621.78
2023-06-30T03:51:56.425Z,99627.00
2023-06-30T03:54:24.624Z,99617.28
2023-06-30T03:56:52.205Z,99616.41
2023-06-30T03:59:19.808Z,99612.91
2023-06-30T04:01:47.412Z,99607.34
2023-06-30T04:04:15.699Z,99614.22
2023-06-30T04:06:45.684Z,99613.22
2023-06-30T04:09:13.298Z,99613.06
2023-06-30T04:11:40.922Z,99606.84
2023-06-30T04:14:08.569Z,99609.38
2023-06-30T04:16:36.189Z,99607.53
2023-06-30T04:19:04.297Z,99617.13
2023-06-30T04:21:31.929Z,99615.41
2023-06-30T04:23:59.492Z,99606.34
2023-06-30T04:26:27.493Z,99615.09
2023-06-30T04:28:55.196Z,99606.66
2023-06-30T04:31:23.755Z,99612.72
2023-06-30T04:33:51.807Z,99613.22
2023-06-30T04:36:21.708Z,99616.59
2023-06-30T04:38:49.706Z,99610.88
2023-06-30T04:41:17.395Z,99614.22
2023-06-30T04:43:45.889Z,99615.72
2023-06-30T04:46:13.518Z,99618.25
2023-06-30T04:48:41.241Z,99625.31
2023-06-30T04:51:08.896Z,99625.97
2023-06-30T04:53:36.533Z,99631.19
2023-06-30T04:56:04.345Z,99622.28
2023-06-30T04:58:32.062Z,99627.66
2023-06-30T05:00:59.643Z,99625.97
2023-06-30T05:03:27.347Z,99625.97
2023-06-30T05:05:57.833Z,99622.97
2023-06-30T05:08:25.622Z,99624.66
2023-06-30T05:10:53.750Z,99620.28
2023-06-30T05:13:21.442Z,99622.97
2023-06-30T05:15:49.475Z,99622.97
2023-06-30T05:18:17.491Z,99627.34
2023-06-30T05:20:45.692Z,99639.09
2023-06-30T05:23:13.389Z,99629.38
2023-06-30T05:25:40.985Z,99633.88
2023-06-30T05:28:08.771Z,99638.41
2023-06-30T05:30:36.535Z,99624.47
2023-06-30T05:33:06.203Z,99625.44
2023-06-30T05:35:34.127Z,99630.84
2023-06-30T05:38:02.224Z,99615.50
2023-06-30T05:40:30.007Z,99621.72
2023-06-30T05:42:57.789Z,99617.16
2023-06-30T05:45:25.842Z,99612.75
2023-06-30T05:47:53.487Z,99619.13
2023-06-30T05:50:23.318Z,99618.63
2023-06-30T05:52:50.951Z,99616.78
2023-06-30T05:55:19.130Z,99619.63
2023-06-30T05:57:47.394Z,99623.66
2023-06-30T06:00:16.621Z,99617.75
2023-06-30T06:02:44.370Z,99630.69
2023-06-30T06:05:12.329Z,99633.56
2023-06-30T06:07:41.750Z,99631.88
2023-06-30T06:10:10.132Z,99625.66
2023-06-30T06:12:37.868Z,99632.72
2023-06-30T06:15:05.605Z,99633.56
2023-06-30T06:17:33.567Z,99630.69
2023-06-30T06:20:01.410Z,99639.13
2023-06-30T06:22:29.476Z,99643.88
2023-06-30T06:24:57.148Z,99650.13
2023-06-30T06:27:24.994Z,99642.75
2023-06-30T06:29:52.677Z,99640.41
2023-06-30T06:32:21.005Z,99637.53
2023-06-30T06:34:49.099Z,99639.03
2023-06-30T06:37:17.129Z,99639.38
2023-06-30T06:39:44.850Z,99637.81
2023-06-30T06:42:12.748Z,99645.03
2023-06-30T06:44:40.784Z,99651.75
2023-06-30T06:47:08.512Z,99652.59
2023-06-30T06:49:36.473Z,99648.53
2023-06-30T06:52:04.344Z,99652.56
2023-06-30T06:54:32.095Z,99651.34
2023-06-30T06:56:59.830Z,99644.50
2023-06-30T06:59:29.116Z,99648.00
2023-06-30T07:01:56.932Z,99644.28
2023-06-30T07:04:24.849Z,99642.94
2023-06-30T07:06:58.817Z,99646.91
2023-06-30T07:09:26.585Z,99639.25
2023-06-30T07:11:54.701Z,99640.69
2023-06-30T07:14:22.526Z,99644.59
2023-06-30T07:16:51.358Z,99653.41
2023-06-30T07:19:19.155Z,99650.03
2023-06-30T07:21:47.226Z,99648.84
2023-06-30T07:24:16.085Z,99647.41
2023-06-30T07:26:45.589Z,99649.75
2023-06-30T07:29:13.376Z,99654.81
2023-06-30T07:31:41.316Z,99650.53
2023-06-30T07:34:09.117Z,99648.03
2023-06-30T07:36:37.530Z,99645.31
2023-06-30T07:39:05.451Z,99652.50
2023-06-30T07:41:36.735Z,99655.56
2023-06-30T07:44:05.271Z,99653.50
2023-06-30T07:46:33.304Z,99652.66
2023-06-30T07:49:01.040Z,99660.59
2023-06-30T07:51:28.922Z,99660.09
2023-06-30T07:53:56.826Z,99658.19
2023-06-30T07:56:24.673Z,99651.47
2023-06-30T07:58:52.448Z,99661.53
2023-06-30T08:01:20.762Z,99654.59
2023-06-30T08:03:50.174Z,99663.81
2023-06-30T08:06:18.273Z,99666.78
2023-06-30T08:08:46.421Z,99664.56
2023-06-30T08:11:14.390Z,99663.38
2023-06-30T08:13:42.488Z,99669.25
2023-06-30T08:16:10.498Z,99670.38
2023-06-30T08:18:38.302Z,99667.16
2023-06-30T08:21:18.428Z,99673.50
2023-06-30T08:23:47.649Z,99668.22
2023-06-30T08:26:16.612Z,99667.66
2023-06-30T08:28:44.482Z,99679.59
2023-06-30T08:31:12.341Z,99683.41
2023-06-30T08:33:42.834Z,99685.56
2023-06-30T08:36:11.567Z,99684.25
2023-06-30T08:38:39.305Z,99679.03
2023-06-30T08:41:07.181Z,99673.28
2023-06-30T08:43:35.208Z,99681.56
2023-06-30T08:46:03.962Z,99674.97
2023-06-30T08:48:35.734Z,99679.50
2023-06-30T08:51:03.576Z,99676.81
2023-06-30T08:53:31.360Z,99671.94
2023-06-30T08:55:59.082Z,99671.19
2023-06-30T08:58:26.933Z,99660.53
2023-06-30T09:00:55.592Z,99661.00
2023-06-30T09:03:23.546Z,99658.53
2023-06-30T09:05:52.729Z,99650.41
2023-06-30T09:08:20.540Z,99647.53
2023-06-30T09:10:48.658Z,99649.19
2023-06-30T09:13:17.369Z,99646.94
2023-06-30T09:15:45.506Z,99645.34
2023-06-30T09:18:13.606Z,99649.94
2023-06-30T09:20:41.641Z,99648.72
2023-06-30T09:23:09.559Z,99650.94
2023-06-30T09:25:38.592Z,99650.19
2023-06-30T09:28:06.605Z,99642.84
2023-06-30T09:30:34.710Z,99649.47
2023-06-30T09:33:03.253Z,99645.19
2023-06-30T09:35:31.366Z,99645.06
2023-06-30T09:37:59.629Z,99644.56
2023-06-30T09:40:27.612Z,99639.69
2023-06-30T09:42:55.666Z,99640.44
2023-06-30T09:45:23.578Z,99644.56
2023-06-30T09:47:51.579Z,99638.41
2023-06-30T09:50:20.475Z,99648.09
2023-06-30T09:52:48.365Z,99641.91
2023-06-30T09:55:16.706Z,99639.88
2023-06-30T09:57:45.340Z,99634.09
2023-06-30T10:00:22.117Z,99637.84
2023-06-30T10:03:02.543Z,99634.09
2023-06-30T10:05:30.582Z,99634.09
2023-06-30T10:07:58.394Z,99631.03
2023-06-30T10:10:26.566Z,99640.88
2023-06-30T10:12:54.545Z,99631.69
2023-06-30T10:15:24.446Z,99636.28
2023-06-30T10:17:52.637Z,99630.81
2023-06-30T10:20:25.494Z,99634.22
2023-06-30T10:23:01.886Z,99636.72
2023-06-30T10:25:31.276Z,99635.06
2023-06-30T10:27:59.263Z,99625.78
2023-06-30T10:30:27.234Z,99625.69
2023-06-30T10:32:55.304Z,99625.16
2023-06-30T10:35:23.388Z,99630.56
2023-06-30T10:37:53.337Z,99631.50
2023-06-30T10:40:21.301Z,99622.50
2023-06-30T10:42:50.089Z,99614.78
2023-06-30T10:45:20.076Z,99615.75
2023-06-30T10:47:48.071Z,99614.78
2023-06-30T10:50:16.594Z,99612.38
2023-06-30T10:52:44.634Z,99617.44
2023-06-30T10:55:12.472Z,99609.94
2023-06-30T10:57:40.799Z,99605.50
2023-06-30T11:00:08.814Z,99608.13
2023-06-30T11:02:37.695Z,99614.09
2023-06-30T11:05:07.726Z,99604.41
2023-06-30T11:07:36.106Z,99609.63
2023-06-30T11:10:07.438Z,99597.19
2023-06-30T11:12:35.670Z,99596.44
2023-06-30T11:15:05.581Z,99594.72
2023-06-30T11:17:33.685Z,99578.78
2023-06-30T11:20:01.797Z,99583.88
2023-06-30T11:22:31.399Z,99590.16
2023-06-30T11:24:59.222Z,99582.22
2023-06-30T11:27:28.161Z,99582.03
2023-06-30T11:29:56.111Z,99579.59
2023-06-30T11:32:23.994Z,99584.16
2023-06-30T11:34:52.014Z,99584.50
2023-06-30T11:37:20.050Z,99584.81
2023-06-30T11:39:49.711Z,99590.88
2023-06-30T11:42:17.572Z,99595.94
2023-06-30T11:44:45.461Z,99586.59
2023-06-30T11:47:13.390Z,99586.44
2023-06-30T11:49:41.197Z,99587.69
2023-06-30T11:52:09.677Z,99579.16
2023-06-30T11:54:37.548Z,99573.47
2023-06-30T11:57:05.384Z,99588.38
2023-06-30T11:59:33.245Z,99581.47
2023-06-30T12:02:02.006Z,99580.19
2023-06-30T12:04:34.929Z,99586.50
2023-06-30T12:07:03.871Z,99581.00
2023-06-30T12:09:32.086Z,99586.69
2023-06-30T12:12:01.758Z,99586.19
2023-06-30T12:14:30.058Z,99590.22
2023-06-30T12:16:58.845Z,99586.03
2023-06-30T12:19:27.215Z,99580.91
2023-06-30T12:21:55.048Z,99584.53
2023-06-30T12:24:22.892Z,99570.66
2023-06-30T12:26:50.884Z,99575.56
2023-06-30T12:29:19.533Z,99583.28
2023-06-30T12:31:48.905Z,99584.06
2023-06-30T12:34:16.906Z,99580.25
2023-06-30T12:36:44.881Z,99580.50
2023-06-30T12:39:12.892Z,99583.25
2023-06-30T12:41:41.182Z,99577.19
2023-06-30T12:44:09.758Z,99571.25
2023-06-30T12:46:37.893Z,99576.16
2023-06-30T12:49:06.677Z,99570.50
2023-06-30T12:51:34.536Z,99572.09
2023-06-30T12:54:03.163Z,99562.63
2023-06-30T12:56:32.684Z,99558.19
2023-06-30T12:59:00.771Z,99554.25
2023-06-30T13:01:28.703Z,99567.41
2023-06-30T13:03:56.744Z,99575.59
2023-06-30T13:06:25.010Z,99563.19
2023-06-30T13:08:52.954Z,99559.94
2023-06-30T13:11:20.981Z,99559.88
2023-06-30T13:13:51.349Z,99555.03
2023-06-30T13:16:19.264Z,99555.16
2023-06-30T13:18:48.436Z,99549.16
2023-06-30T13:21:16.472Z,99542.78
2023-06-30T13:23:44.344Z,99536.28
2023-06-30T13:26:12.843Z,99542.41
2023-06-30T13:28:41.684Z,99540.22
2023-06-30T13:31:10.535Z,99544.44
2023-06-30T13:33:38.555Z,99540.94
2023-06-30T13:36:06.989Z,99542.78
2023-06-30T13:38:34.962Z,99543.41
2023-06-30T13:41:04.921Z,99548.75
2023-06-30T13:43:32.838Z,99539.44
2023-06-30T13:46:00.745Z,99528.91
2023-06-30T13:48:29.314Z,99529.16
2023-06-30T13:50:57.166Z,99530.13
2023-06-30T13:53:26.179Z,99528.50
2023-06-30T13:55:55.022Z,99536.81
2023-06-30T13:58:22.980Z,99534.13
2023-06-30T14:00:50.935Z,99534.72
2023-06-30T14:03:21.710Z,99539.22
2023-06-30T14:05:51.428Z,99525.22
2023-06-30T14:08:20.268Z,99523.78
2023-06-30T14:10:48.629Z,99515.00
2023-06-30T14:13:16.515Z,99518.78
2023-06-30T14:15:44.583Z,99518.56
2023-06-30T14:18:12.895Z,99519.25
2023-06-30T14:20:41.305Z,99519.28
2023-06-30T14:23:09.232Z,99508.50
2023-06-30T14:25:37.120Z,99502.97
2023-06-30T14:28:05.036Z,99500.66
2023-06-30T14:30:34.856Z,99499.97
2023-06-30T14:33:04.937Z,99495.31
2023-06-30T14:35:32.956Z,99501.88
2023-06-30T14:38:02.714Z,99495.59
2023-06-30T14:40:32.151Z,99494.47
2023-06-30T14:43:00.240Z,99489.97
2023-06-30T14:45:30.640Z,99499.81
2023-06-30T14:47:58.751Z,99495.06
2023-06-30T14:50:27.047Z,99493.75
2023-06-30T14:52:54.936Z,99493.75
2023-06-30T14:55:23.412Z,99493.09
2023-06-30T14:57:51.924Z,99478.97
2023-06-30T15:00:21.032Z,99485.28
2023-06-30T15:02:49.830Z,99483.56
2023-06-30T15:05:17.763Z,99480.38
2023-06-30T15:07:47.514Z,99483.59
2023-06-30T15:10:16.753Z,99484.41
2023-06-30T15:12:44.624Z,99485.88
2023-06-30T15:15:12.729Z,99480.63
2023-06-30T15:17:41.283Z,99467.63
2023-06-30T15:20:09.289Z,99464.63
2023-06-30T15:22:38.487Z,99461.13
2023-06-30T15:25:06.710Z,99474.22
2023-06-30T15:27:35.909Z,99473.66
2023-06-30T15:30:07.532Z,99481.44
2023-06-30T15:32:35.555Z,99463.41
2023-06-30T15:35:03.672Z,99466.59
2023-06-30T15:37:31.748Z,99459.94
2023-06-30T15:40:00.401Z,99454.91
2023-06-30T15:42:28.544Z,99448.28
2023-06-30T15:44:56.578Z,99443.00
2023-06-30T15:47:25.800Z,99445.09
2023-06-30T15:49:53.817Z,99442.50
2023-06-30T15:52:21.672Z,99448.06
2023-06-30T15:54:49.702Z,99449.16
2023-06-30T15:57:17.673Z,99448.47
2023-06-30T15:59:45.963Z,99444.50
2023-06-30T16:02:14.210Z,99442.47
2023-06-30T16:04:42.213Z,99434.88
2023-06-30T16:07:10.172Z,99435.59
2023-06-30T16:09:38.089Z,99426.72
2023-06-30T16:12:07.494Z,99426.72
2023-06-30T16:14:35.490Z,99428.53
2023-06-30T16:17:03.468Z,99425.13
2023-06-30T16:19:31.364Z,99421.16
2023-06-30T16:21:59.269Z,99415.03
2023-06-30T16:24:29.313Z,99417.19
2023-06-30T16:26:57.314Z,99411.81
2023-06-30T16:29:25.434Z,99412.88
2023-06-30T16:31:53.524Z,99407.00
2023-06-30T16:34:21.562Z,99413.97
2023-06-30T16:36:50.358Z,99406.22
2023-06-30T16:39:18.202Z,99405.78
2023-06-30T16:41:46.119Z,99408.78
2023-06-30T16:44:14.061Z,99400.59
2023-06-30T16:46:42.336Z,99402.28
2023-06-30T16:49:11.065Z,99395.13
2023-06-30T16:51:39.825Z,99393.16
2023-06-30T16:54:07.837Z,99403.81
2023-06-30T16:56:35.761Z,99393.50
2023-06-30T16:59:03.710Z,99401.56
2023-06-30T17:01:31.999Z,99389.88
2023-06-30T17:04:00.030Z,99390.81
2023-06-30T17:06:28.027Z,99383.19
2023-06-30T17:08:55.925Z,99383.16
2023-06-30T17:11:23.920Z,99383.69
2023-06-30T17:13:51.810Z,99384.28
2023-06-30T17:16:20.716Z,99388.63
2023-06-30T17:18:49.633Z,99392.56
2023-06-30T17:21:17.600Z,99389.31
2023-06-30T17:23:45.657Z,99386.53
2023-06-30T17:26:16.556Z,99394.59
2023-06-30T17:28:44.709Z,99391.75
2023-06-30T17:31:12.969Z,99385.09
2023-06-30T17:33:40.849Z,99378.03
2023-06-30T17:36:10.582Z,99383.50
2023-06-30T17:38:39.795Z,99384.81
2023-06-30T17:41:07.777Z,99386.09
2023-06-30T17:43:35.736Z,99385.25
2023-06-30T17:46:04.706Z,99382.78
2023-06-30T17:48:32.812Z,99387.38
2023-06-30T17:51:01.116Z,99383.19
2023-06-30T17:53:30.283Z,99382.78
2023-06-30T17:55:58.349Z,99383.59
2023-06-30T17:58:26.156Z,99390.91
2023-06-30T18:00:54.175Z,99389.88
2023-06-30T18:03:22.596Z,99384.00
2023-06-30T18:05:50.712Z,99380.44
2023-06-30T18:08:18.594Z,99383.94
2023-06-30T18:10:49.112Z,99375.59
2023-06-30T18:13:22.886Z,99376.84
2023-06-30T18:15:50.956Z,99379.75
2023-06-30T18:18:18.986Z,99373.91
2023-06-30T18:20:46.965Z,99382.25
2023-06-30T18:23:14.835Z,99372.88
2023-06-30T18:25:42.612Z,99381.81
2023-06-30T18:28:10.763Z,99378.22
2023-06-30T18:30:38.612Z,99380.09
2023-06-30T18:33:06.615Z,99381.56
2023-06-30T18:35:34.606Z,99376.75
2023-06-30T18:38:03.264Z,99370.03
2023-06-30T18:40:31.205Z,99373.38
2023-06-30T18:42:59.218Z,99372.94
2023-06-30T18:45:27.042Z,99369.78
2023-06-30T18:47:54.909Z,99376.84
2023-06-30T18:50:24.581Z,99370.75
2023-06-30T18:52:52.444Z,99366.53
2023-06-30T18:55:20.697Z,99370.44
2023-06-30T18:57:48.593Z,99374.56
2023-06-30T19:00:16.487Z,99367.00
2023-06-30T19:02:45.496Z,99373.56
2023-06-30T19:05:13.503Z,99371.25
2023-06-30T19:07:41.572Z,99368.69
2023-06-30T19:10:10.709Z,99368.00
2023-06-30T19:12:38.713Z,99368.50
2023-06-30T19:15:07.079Z,99360.91
2023-06-30T19:17:35.399Z,99365.84
2023-06-30T19:20:03.461Z,99369.03
2023-06-30T19:22:31.385Z,99367.69
2023-06-30T19:25:00.234Z,99369.88
2023-06-30T19:27:28.979Z,99378.50
2023-06-30T19:29:56.875Z,99369.84
2023-06-30T19:32:25.014Z,99381.78
2023-06-30T19:34:52.982Z,99378.56
2023-06-30T19:37:20.937Z,99378.84
2023-06-30T19:39:51.056Z,99377.91
2023-06-30T19:42:19.047Z,99378.03
2023-06-30T19:44:47.753Z,99379.97
2023-06-30T19:47:15.780Z,99381.09
2023-06-30T19:49:44.953Z,99383.09
2023-06-30T19:52:13.667Z,99377.56
2023-06-30T19:54:41.793Z,99382.03
2023-06-30T19:57:09.779Z,99390.88
2023-06-30T19:59:37.769Z,99388.94
2023-06-30T20:02:06.273Z,99384.88
2023-06-30T20:04:34.843Z,99385.44
2023-06-30T20:07:02.715Z,99384.13
2023-06-30T20:09:32.749Z,99382.19
2023-06-30T20:12:00.771Z,99376.66
2023-06-30T20:14:28.674Z,99385.50
2023-06-30T20:16:57.613Z,99383.72
2023-06-30T20:19:25.575Z,99380.91
2023-06-30T20:21:56.502Z,99384.31
2023-06-30T20:24:24.853Z,99378.47
2023-06-30T20:26:53.024Z,99382.19
2023-06-30T20:29:22.119Z,99366.34
2023-06-30T20:31:49.990Z,99376.66
2023-06-30T20:34:17.968Z,99376.19
2023-06-30T20:36:45.970Z,99370.31
2023-06-30T20:39:13.830Z,99373.38
2023-06-30T20:41:42.175Z,99379.78
2023-06-30T20:44:13.615Z,99373.56
2023-06-30T20:46:43.190Z,99369.03
2023-06-30T20:49:11.368Z,99371.72
2023-06-30T20:51:39.282Z,99367.19
2023-06-30T20:54:08.095Z,99363.63
2023-06-30T20:56:35.969Z,99370.69
2023-06-30T20:59:03.864Z,99367.34
2023-06-30T21:01:31.894Z,99358.78
2023-06-30T21:03:59.960Z,99367.03
2023-06-30T21:06:29.239Z,99359.34
2023-06-30T21:08:57.209Z,99351.59
2023-06-30T21:11:25.960Z,99351.97
2023-06-30T21:13:53.776Z,99352.34
2023-06-30T21:16:21.615Z,99349.16
2023-06-30T21:18:53.007Z,99347.63
2023-06-30T21:21:21.091Z,99344.09
2023-06-30T21:23:49.154Z,99348.66
2023-06-30T21:26:17.208Z,99338.72
2023-06-30T21:28:45.005Z,99336.19
2023-06-30T21:31:14.668Z,99338.22
2023-06-30T21:33:42.589Z,99333.06
2023-06-30T21:36:10.660Z,99330.69
2023-06-30T21:38:38.526Z,99325.84
2023-06-30T21:41:06.498Z,99330.94
2023-06-30T21:43:34.777Z,99330.66
2023-06-30T21:46:02.633Z,99321.41
2023-06-30T21:48:30.535Z,99320.97
2023-06-30T21:50:58.308Z,99312.56
2023-06-30T21:53:26.590Z,99306.72
2023-06-30T21:55:55.134Z,99308.06
2023-06-30T21:58:27.815Z,99313.16
2023-06-30T22:00:56.091Z,99303.75
2023-06-30T22:03:24.157Z,99301.44
2023-06-30T22:05:51.989Z,99296.38
2023-06-30T22:08:20.646Z,99292.22
2023-06-30T22:10:48.725Z,99294.22
2023-06-30T22:13:16.676Z,99284.50
2023-06-30T22:15:44.973Z,99284.66
2023-06-30T22:18:12.831Z,99287.53
2023-06-30T22:20:41.214Z,99280.66
2023-06-30T22:23:09.049Z,99278.13
2023-06-30T22:25:36.828Z,99276.47
2023-06-30T22:28:04.619Z,99275.44
2023-06-30T22:30:32.792Z,99266.38
2023-06-30T22:33:01.380Z,99272.44
2023-06-30T22:35:29.292Z,99270.72
2023-06-30T22:37:57.105Z,99269.06
2023-06-30T22:40:24.966Z,99263.88
2023-06-30T22:42:52.749Z,99261.19
2023-06-30T22:45:20.815Z,99267.38
2023-06-30T22:47:48.496Z,99250.44
2023-06-30T22:50:16.437Z,99262.66
2023-06-30T22:52:44.184Z,99256.28
2023-06-30T22:55:12.029Z,99256.28
2023-06-30T22:57:40.292Z,99246.38
2023-06-30T23:00:09.085Z,99248.88
2023-06-30T23:02:36.923Z,99243.34
2023-06-30T23:05:05.238Z,99246.69
2023-06-30T23:07:33.033Z,99244.81
2023-06-30T23:10:01.244Z,99246.13
2023-06-30T23:12:28.966Z,99239.56
2023-06-30T23:14:56.657Z,99238.38
2023-06-30T23:17:26.720Z,99237.16
2023-06-30T23:19:54.638Z,99235.63
2023-06-30T23:22:31.607Z,99235.28
2023-06-30T23:24:59.379Z,99232.19
2023-06-30T23:27:28.728Z,99228.81
2023-06-30T23:36:18.488Z,99217.09
2023-06-30T23:44:59.336Z,99211.63
2023-06-30T23:56:48.846Z,99208.75
2023-06-30T23:59:16.428Z,99207.06
